LSZP weather

Biel-Kappelen Airport
Canton of Berne, Switzerland

Public forecast

Using degrees Celsius for public forecast. Weather courtesy of forecast.io.

METAR (pilot weather report)

Closest report is Grenchen Airport, 7.6 nm (14.1 km) NE. Retrieved 2019/06/26 03:20 UTC (0 seconds ago):

LSZG 260320Z AUTO 11001KT CAVOK 18/18 Q1024

TAF (pilot weather forecast)

Forecast is more than 6 hours old.

Closest forecast is Payerne Air Base, 21.3 nm (39.5 km) SW. Retrieved 2019/06/25 17:00 UTC (10 hours ago):

TAF LSMP 251625Z 2517/2623 VRB03KT CAVOK